createdAt,value
2023-04-22T00:01:56.856Z,79.03
2023-04-22T00:04:25.275Z,78.55
2023-04-22T00:06:53.049Z,78.86
2023-04-22T00:09:22.388Z,79.27
2023-04-22T00:11:49.987Z,79.03
2023-04-22T00:14:17.857Z,79.28
2023-04-22T00:16:45.533Z,79.15
2023-04-22T00:19:13.668Z,79.36
2023-04-22T00:21:41.268Z,79.41
2023-04-22T00:24:09.164Z,79.76
2023-04-22T00:26:38.176Z,80.23
2023-04-22T00:29:06.058Z,80.21
2023-04-22T00:31:33.751Z,80.30
2023-04-22T00:34:01.810Z,80.42
2023-04-22T00:36:29.555Z,80.01
2023-04-22T00:38:57.598Z,80.66
2023-04-22T00:41:25.964Z,80.81
2023-04-22T00:43:55.754Z,81.20
2023-04-22T00:46:23.370Z,80.85
2023-04-22T00:48:51.861Z,81.35
2023-04-22T00:51:19.512Z,81.52
2023-04-22T00:53:47.440Z,81.30
2023-04-22T00:56:15.262Z,81.75
2023-04-22T00:58:43.187Z,81.62
2023-04-22T01:01:12.516Z,80.87
2023-04-22T01:03:41.923Z,81.33
2023-04-22T01:06:09.788Z,81.13
2023-04-22T01:08:37.761Z,81.82
2023-04-22T01:11:05.590Z,81.78
2023-04-22T01:13:33.687Z,82.07
2023-04-22T01:16:02.606Z,83.01
2023-04-22T01:18:32.459Z,83.95
2023-04-22T01:21:00.068Z,82.98
2023-04-22T01:23:29.106Z,83.69
2023-04-22T01:25:57.009Z,83.68
2023-04-22T01:28:25.802Z,84.34
2023-04-22T01:30:53.664Z,84.51
2023-04-22T01:33:21.417Z,84.30
2023-04-22T01:35:49.124Z,83.95
2023-04-22T01:38:16.929Z,84.18
2023-04-22T01:40:45.877Z,83.93
2023-04-22T01:43:13.655Z,84.02
2023-04-22T01:45:41.479Z,84.50
2023-04-22T01:48:09.314Z,84.45
2023-04-22T01:50:38.423Z,84.47
2023-04-22T01:53:08.610Z,84.58
2023-04-22T01:55:37.397Z,84.60
2023-04-22T01:58:06.681Z,84.71
2023-04-22T02:00:34.570Z,84.45
2023-04-22T02:03:02.315Z,84.74
2023-04-22T02:05:30.141Z,84.82
2023-04-22T02:07:58.254Z,84.99
2023-04-22T02:10:26.068Z,84.69
2023-04-22T02:12:53.689Z,84.62
2023-04-22T02:15:22.941Z,84.13
2023-04-22T02:17:54.091Z,84.26
2023-04-22T02:20:22.031Z,84.43
2023-04-22T02:22:50.677Z,84.73
2023-04-22T02:25:21.035Z,84.74
2023-04-22T02:27:50.576Z,84.61
2023-04-22T02:30:18.583Z,84.81
2023-04-22T02:32:47.602Z,85.15
2023-04-22T02:35:15.491Z,84.58
2023-04-22T02:37:43.081Z,85.23
2023-04-22T02:40:11.900Z,84.91
2023-04-22T02:42:39.490Z,84.92
2023-04-22T02:45:08.192Z,85.09
2023-04-22T02:47:36.581Z,85.53
2023-04-22T02:50:08.294Z,85.04
2023-04-22T02:52:35.953Z,85.17
2023-04-22T02:55:03.804Z,85.66
2023-04-22T02:57:31.564Z,85.10
2023-04-22T02:59:59.408Z,84.94
2023-04-22T03:02:27.428Z,84.23
2023-04-22T03:05:26.060Z,84.33
2023-04-22T03:07:54.320Z,84.67
2023-04-22T03:10:22.858Z,84.68
2023-04-22T03:12:51.604Z,84.84
2023-04-22T03:15:21.638Z,85.06
2023-04-22T03:17:49.693Z,84.52
2023-04-22T03:20:19.133Z,85.42
2023-04-22T03:22:48.144Z,85.68
2023-04-22T03:25:17.573Z,85.78
2023-04-22T03:27:53.177Z,85.59
2023-04-22T03:30:21.151Z,85.76
2023-04-22T03:32:49.015Z,85.84
2023-04-22T03:35:21.296Z,85.85
2023-04-22T03:37:52.217Z,86.19
2023-04-22T03:40:25.485Z,86.39
2023-04-22T03:42:54.292Z,85.97
2023-04-22T03:45:23.221Z,86.12
2023-04-22T03:48:13.775Z,86.73
2023-04-22T03:50:47.307Z,86.21
2023-04-22T03:53:17.899Z,86.37
2023-04-22T03:55:46.171Z,86.50
2023-04-22T03:58:15.744Z,86.56
2023-04-22T04:00:43.813Z,86.72
2023-04-22T04:03:16.430Z,86.08
2023-04-22T04:05:47.403Z,86.37
2023-04-22T04:08:16.733Z,86.46
2023-04-22T04:10:44.990Z,86.51
2023-04-22T04:13:14.114Z,86.02
2023-04-22T04:15:53.708Z,86.27
2023-04-22T04:18:21.526Z,86.10
2023-04-22T04:20:50.186Z,85.71
2023-04-22T04:23:19.368Z,86.32
2023-04-22T04:25:48.363Z,86.24
2023-04-22T04:28:17.528Z,86.75
2023-04-22T04:30:45.471Z,86.80
2023-04-22T04:33:13.271Z,86.49
2023-04-22T04:35:44.768Z,86.81
2023-04-22T04:38:16.591Z,86.20
2023-04-22T04:40:46.171Z,86.53
2023-04-22T04:43:18.567Z,86.11
2023-04-22T04:45:58.782Z,86.22
2023-04-22T04:48:35.889Z,85.83
2023-04-22T04:51:07.882Z,86.03
2023-04-22T04:53:41.151Z,85.69
2023-04-22T04:56:10.194Z,85.69
2023-04-22T04:58:38.134Z,85.39
2023-04-22T05:01:19.946Z,85.39
2023-04-22T05:03:48.962Z,85.37
2023-04-22T05:06:18.844Z,85.70
2023-04-22T05:09:03.669Z,85.74
2023-04-22T05:11:33.010Z,85.74
2023-04-22T05:14:03.915Z,86.28
2023-04-22T05:16:35.896Z,86.40
2023-04-22T05:19:04.688Z,86.36
2023-04-22T05:21:34.248Z,85.72
2023-04-22T05:24:01.926Z,85.34
2023-04-22T05:26:30.880Z,84.69
2023-04-22T05:29:00.174Z,84.07
2023-04-22T05:31:29.173Z,84.31
2023-04-22T05:33:57.667Z,84.41
2023-04-22T05:36:30.558Z,83.48
2023-04-22T05:38:59.164Z,83.83
2023-04-22T05:41:27.263Z,83.32
2023-04-22T05:43:56.938Z,82.57
2023-04-22T05:46:27.162Z,82.28
2023-04-22T05:48:56.388Z,82.14
2023-04-22T05:51:59.526Z,81.69
2023-04-22T05:54:34.488Z,81.00
2023-04-22T05:57:03.610Z,81.36
2023-04-22T05:59:31.505Z,81.23
2023-04-22T06:02:00.988Z,81.33
2023-04-22T06:04:28.802Z,81.28
2023-04-22T06:06:57.347Z,81.31
2023-04-22T06:09:25.068Z,81.19
2023-04-22T06:11:52.779Z,81.52
2023-04-22T06:14:20.499Z,81.82
2023-04-22T06:16:50.311Z,81.54
2023-04-22T06:19:19.491Z,81.36
2023-04-22T06:21:47.341Z,81.37
2023-04-22T06:24:16.124Z,81.10
2023-04-22T06:26:45.551Z,81.61
2023-04-22T06:29:13.237Z,81.33
2023-04-22T06:31:41.654Z,81.50
2023-04-22T06:34:09.278Z,81.64
2023-04-22T06:36:38.332Z,81.29
2023-04-22T06:39:07.412Z,80.65
2023-04-22T06:41:53.772Z,79.77
2023-04-22T06:44:41.654Z,79.29
2023-04-22T06:47:18.876Z,78.58
2023-04-22T06:49:54.250Z,78.55
2023-04-22T06:52:30.614Z,77.98
2023-04-22T06:54:59.855Z,76.79
2023-04-22T06:57:27.526Z,76.21
2023-04-22T06:59:55.312Z,75.30
2023-04-22T07:02:25.030Z,75.07
2023-04-22T07:04:52.635Z,73.55
2023-04-22T07:07:20.472Z,73.32
2023-04-22T07:09:49.457Z,72.65
2023-04-22T07:12:17.293Z,71.32
2023-04-22T07:14:45.803Z,69.56
2023-04-22T07:17:13.831Z,67.64
2023-04-22T07:19:41.707Z,67.24
2023-04-22T07:22:09.628Z,67.64
2023-04-22T07:24:37.476Z,67.00
2023-04-22T07:27:06.561Z,65.82
2023-04-22T07:29:34.180Z,66.47
2023-04-22T07:32:02.255Z,66.00
2023-04-22T07:34:29.899Z,65.43
2023-04-22T07:36:57.802Z,66.21
2023-04-22T07:39:25.522Z,66.59
2023-04-22T07:41:53.214Z,67.83
2023-04-22T07:44:22.284Z,66.93
2023-04-22T07:46:50.601Z,67.48
2023-04-22T07:49:18.274Z,66.15
2023-04-22T07:51:46.068Z,65.71
2023-04-22T07:54:13.744Z,66.32
2023-04-22T07:56:41.458Z,65.24
2023-04-22T07:59:09.226Z,64.78
2023-04-22T08:01:38.233Z,64.73
2023-04-22T08:04:06.402Z,64.34
2023-04-22T08:06:34.620Z,64.33
2023-04-22T08:09:02.226Z,63.94
2023-04-22T08:11:29.834Z,62.41
2023-04-22T08:13:57.533Z,62.30
2023-04-22T08:16:25.197Z,61.47
2023-04-22T08:18:56.312Z,60.61
2023-04-22T08:21:24.182Z,59.95
2023-04-22T08:23:52.156Z,59.14
2023-04-22T08:26:19.799Z,58.39
2023-04-22T08:28:47.810Z,57.67
2023-04-22T08:31:15.462Z,57.44
2023-04-22T08:33:43.281Z,57.10
2023-04-22T08:36:12.279Z,56.43
2023-04-22T08:38:40.046Z,56.04
2023-04-22T08:41:08.008Z,54.42
2023-04-22T08:43:36.531Z,55.00
2023-04-22T08:46:04.242Z,53.96
2023-04-22T08:48:33.417Z,53.95
2023-04-22T08:51:01.532Z,53.31
2023-04-22T08:53:30.652Z,53.36
2023-04-22T08:55:58.537Z,52.71
2023-04-22T08:58:26.448Z,52.33
2023-04-22T09:00:54.396Z,50.98
2023-04-22T09:03:23.259Z,51.85
2023-04-22T09:05:52.851Z,50.96
2023-04-22T09:08:21.101Z,51.06
2023-04-22T09:10:50.236Z,51.60
2023-04-22T09:13:18.669Z,51.79
2023-04-22T09:15:46.396Z,51.27
2023-04-22T09:18:17.956Z,51.41
2023-04-22T09:20:48.024Z,50.30
2023-04-22T09:23:16.372Z,48.47
2023-04-22T09:25:46.462Z,49.31
2023-04-22T09:28:19.557Z,49.34
2023-04-22T09:30:48.280Z,47.15
2023-04-22T09:33:17.277Z,47.34
2023-04-22T09:35:45.345Z,48.86
2023-04-22T09:38:13.956Z,46.53
2023-04-22T09:40:44.308Z,46.43
2023-04-22T09:43:12.706Z,47.41
2023-04-22T09:45:43.563Z,43.85
2023-04-22T09:48:12.992Z,43.21
2023-04-22T09:50:44.426Z,45.17
2023-04-22T09:53:15.039Z,43.70
2023-04-22T09:55:45.595Z,43.58
2023-04-22T09:58:15.148Z,41.63
2023-04-22T10:00:45.600Z,42.69
2023-04-22T10:03:13.324Z,42.37
2023-04-22T10:05:41.451Z,41.43
2023-04-22T10:08:10.807Z,41.73
2023-04-22T10:10:39.537Z,41.55
2023-04-22T10:13:07.805Z,39.91
2023-04-22T10:15:37.506Z,40.74
2023-04-22T10:18:09.509Z,41.03
2023-04-22T10:20:38.779Z,40.24
2023-04-22T10:23:07.492Z,41.47
2023-04-22T10:25:35.174Z,40.85
2023-04-22T10:28:04.001Z,41.19
2023-04-22T10:30:34.413Z,38.91
2023-04-22T10:33:39.096Z,38.66
2023-04-22T10:36:09.027Z,39.32
2023-04-22T10:38:37.274Z,39.99
2023-04-22T10:41:05.228Z,39.57
2023-04-22T10:43:43.250Z,40.22
2023-04-22T10:46:45.350Z,40.28
2023-04-22T10:49:16.447Z,40.52
2023-04-22T10:51:46.515Z,40.55
2023-04-22T10:55:01.496Z,41.25
2023-04-22T10:57:40.496Z,40.08
2023-04-22T11:00:27.009Z,39.86
2023-04-22T11:03:07.727Z,41.05
2023-04-22T11:05:37.521Z,41.63
2023-04-22T11:08:07.477Z,41.74
2023-04-22T11:10:42.975Z,40.76
2023-04-22T11:13:13.864Z,41.83
2023-04-22T11:15:43.368Z,41.30
2023-04-22T11:18:14.711Z,40.78
2023-04-22T11:20:45.066Z,40.04
2023-04-22T11:23:12.654Z,41.88
2023-04-22T11:25:40.232Z,41.67
2023-04-22T11:28:07.824Z,41.22
2023-04-22T11:30:35.967Z,42.21
2023-04-22T11:33:03.667Z,41.37
2023-04-22T11:35:33.066Z,40.17
2023-04-22T11:38:04.100Z,39.87
2023-04-22T11:40:35.867Z,41.26
2023-04-22T11:43:07.436Z,40.97
2023-04-22T11:45:36.535Z,40.58
2023-04-22T11:48:06.906Z,40.62
2023-04-22T11:50:36.463Z,40.70
2023-04-22T11:53:06.518Z,40.03
2023-04-22T11:55:37.109Z,38.56
2023-04-22T11:58:08.120Z,39.57
2023-04-22T12:00:37.830Z,39.75
2023-04-22T12:03:08.172Z,40.06
2023-04-22T12:05:38.712Z,40.21
2023-04-22T12:08:10.873Z,39.89
2023-04-22T12:10:44.165Z,40.74
2023-04-22T12:13:18.328Z,36.76
2023-04-22T12:15:46.272Z,37.79
2023-04-22T12:18:14.373Z,36.55
2023-04-22T12:20:43.194Z,37.44
2023-04-22T12:23:15.632Z,38.96
2023-04-22T12:25:44.163Z,38.33
2023-04-22T12:28:12.548Z,38.34
2023-04-22T12:30:40.195Z,39.78
2023-04-22T12:33:07.923Z,38.99
2023-04-22T12:35:35.550Z,39.40
2023-04-22T12:38:03.387Z,40.12
2023-04-22T12:40:32.418Z,41.07
2023-04-22T12:43:01.141Z,40.98
2023-04-22T12:45:28.794Z,39.52
2023-04-22T12:47:56.835Z,39.61
2023-04-22T12:50:24.501Z,38.19
2023-04-22T12:52:52.228Z,37.75
2023-04-22T12:55:20.908Z,36.95
2023-04-22T12:57:52.274Z,37.29
2023-04-22T13:00:20.877Z,38.13
2023-04-22T13:02:49.573Z,37.78
2023-04-22T13:05:18.161Z,40.07
2023-04-22T13:07:53.227Z,38.68
2023-04-22T13:10:28.223Z,36.81
2023-04-22T13:13:06.442Z,37.07
2023-04-22T13:15:44.352Z,37.00
2023-04-22T13:18:12.364Z,36.16
2023-04-22T13:20:41.678Z,36.73
2023-04-22T13:23:09.656Z,35.00
2023-04-22T13:25:37.313Z,34.42
2023-04-22T13:28:06.432Z,35.54
2023-04-22T13:30:34.350Z,36.64
2023-04-22T13:33:02.116Z,35.93
2023-04-22T13:35:29.890Z,36.04
2023-04-22T13:37:58.084Z,36.26
2023-04-22T13:40:26.618Z,36.02
2023-04-22T13:42:54.452Z,36.38
2023-04-22T13:45:23.572Z,37.74
2023-04-22T13:47:51.766Z,37.18
2023-04-22T13:50:19.389Z,37.25
2023-04-22T13:52:47.327Z,35.69
2023-04-22T13:55:15.123Z,36.08
2023-04-22T13:57:42.858Z,36.24
2023-04-22T14:00:11.264Z,34.85
2023-04-22T14:02:42.954Z,34.43
2023-04-22T14:05:11.036Z,34.56
2023-04-22T14:07:38.780Z,34.37
2023-04-22T14:10:08.464Z,35.06
2023-04-22T14:12:36.344Z,35.45
2023-04-22T14:15:04.092Z,35.27
2023-04-22T14:17:31.964Z,34.78
2023-04-22T14:20:00.911Z,32.15
2023-04-22T14:22:28.509Z,33.79
2023-04-22T14:24:56.477Z,33.52
2023-04-22T14:27:24.124Z,34.03
2023-04-22T14:29:52.367Z,33.00
2023-04-22T14:32:20.645Z,33.46
2023-04-22T14:34:48.870Z,33.47
2023-04-22T14:37:18.036Z,35.19
2023-04-22T14:39:45.796Z,34.17
2023-04-22T14:42:13.471Z,33.49
2023-04-22T14:44:41.599Z,33.96
2023-04-22T14:47:09.210Z,33.15
2023-04-22T14:49:37.057Z,32.96
2023-04-22T14:52:06.576Z,32.88
2023-04-22T14:54:35.557Z,33.99
2023-04-22T14:57:04.113Z,34.90
2023-04-22T14:59:31.952Z,34.13
2023-04-22T15:01:59.871Z,33.97
2023-04-22T15:04:27.928Z,33.06
2023-04-22T15:06:57.527Z,33.96
2023-04-22T15:09:25.431Z,33.64
2023-04-22T15:11:54.755Z,33.35
2023-04-22T15:14:22.480Z,33.23
2023-04-22T15:16:50.090Z,34.89
2023-04-22T15:19:17.815Z,35.96
2023-04-22T15:21:46.696Z,38.68
2023-04-22T15:24:14.454Z,41.81
2023-04-22T15:26:42.131Z,39.21
2023-04-22T15:29:11.257Z,36.61
2023-04-22T15:31:38.946Z,35.58
2023-04-22T15:34:06.831Z,37.13
2023-04-22T15:36:34.540Z,38.05
2023-04-22T15:39:03.136Z,39.16
2023-04-22T15:41:30.799Z,40.88
2023-04-22T15:43:58.508Z,41.95
2023-04-22T15:46:29.625Z,43.62
2023-04-22T15:48:58.133Z,45.88
2023-04-22T15:51:26.411Z,41.51
2023-04-22T15:53:54.844Z,43.65
2023-04-22T15:56:22.881Z,40.45
2023-04-22T15:58:50.815Z,42.95
2023-04-22T16:01:20.247Z,43.24
2023-04-22T16:03:50.281Z,46.40
2023-04-22T16:06:18.279Z,47.37
2023-04-22T16:08:46.431Z,48.99
2023-04-22T16:11:15.580Z,51.47
2023-04-22T16:13:43.430Z,51.44
2023-04-22T16:16:11.381Z,48.88
2023-04-22T16:18:39.991Z,47.63
2023-04-22T16:21:10.457Z,46.63
2023-04-22T16:23:38.098Z,49.05
2023-04-22T16:26:06.524Z,50.46
2023-04-22T16:28:34.162Z,49.92
2023-04-22T16:31:02.070Z,51.34
2023-04-22T16:33:29.682Z,45.81
2023-04-22T16:35:58.205Z,46.63
2023-04-22T16:38:27.110Z,45.74
2023-04-22T16:40:54.735Z,46.25
2023-04-22T16:43:22.437Z,47.33
2023-04-22T16:45:50.226Z,47.80
2023-04-22T16:48:17.843Z,49.75
2023-04-22T16:50:45.514Z,49.88
2023-04-22T16:53:13.130Z,50.12
2023-04-22T16:55:43.462Z,51.02
2023-04-22T16:58:12.248Z,52.17
2023-04-22T17:00:40.215Z,52.79
2023-04-22T17:03:07.939Z,52.46
2023-04-22T17:05:35.725Z,52.56
2023-04-22T17:08:03.337Z,51.90
2023-04-22T17:10:32.539Z,52.74
2023-04-22T17:13:01.449Z,53.79
2023-04-22T17:15:29.018Z,54.42
2023-04-22T17:17:56.631Z,53.78
2023-04-22T17:20:24.309Z,52.58
2023-04-22T17:22:51.920Z,53.09
2023-04-22T17:25:19.939Z,55.43
2023-04-22T17:27:47.567Z,55.15
2023-04-22T17:30:16.784Z,55.24
2023-04-22T17:32:44.648Z,54.82
2023-04-22T17:35:12.380Z,54.83
2023-04-22T17:37:40.283Z,54.37
2023-04-22T17:40:09.380Z,54.35
2023-04-22T17:42:45.632Z,54.46
2023-04-22T17:45:14.314Z,54.83
2023-04-22T17:47:43.494Z,54.23
2023-04-22T17:50:11.696Z,54.25
2023-04-22T17:52:39.410Z,54.61
2023-04-22T17:55:08.430Z,56.30
2023-04-22T17:57:36.519Z,57.45
2023-04-22T18:00:04.709Z,60.09
2023-04-22T18:02:35.368Z,62.27
2023-04-22T18:05:05.480Z,62.25
2023-04-22T18:07:33.104Z,62.08
2023-04-22T18:10:00.867Z,62.84
2023-04-22T18:12:30.755Z,64.39
2023-04-22T18:14:59.009Z,57.62
2023-04-22T18:17:26.878Z,55.28
2023-04-22T18:20:02.667Z,57.57
2023-04-22T18:22:35.447Z,58.11
2023-04-22T18:25:03.074Z,57.66
2023-04-22T18:27:31.584Z,56.70
2023-04-22T18:29:59.166Z,56.49
2023-04-22T18:32:26.980Z,57.72
2023-04-22T18:34:54.607Z,58.58
2023-04-22T18:37:22.473Z,59.71
2023-04-22T18:39:51.395Z,59.79
2023-04-22T18:42:19.583Z,60.49
2023-04-22T18:44:47.185Z,58.24
2023-04-22T18:47:15.080Z,58.45
2023-04-22T18:49:42.669Z,57.43
2023-04-22T18:52:10.383Z,58.04
2023-04-22T18:54:38.171Z,58.78
2023-04-22T18:57:07.470Z,59.07
2023-04-22T18:59:35.090Z,58.74
2023-04-22T19:02:03.609Z,59.20
2023-04-22T19:04:32.003Z,58.84
2023-04-22T19:06:59.899Z,60.15
2023-04-22T19:09:27.659Z,60.86
2023-04-22T19:11:55.496Z,60.23
2023-04-22T19:14:24.659Z,59.30
2023-04-22T19:16:52.445Z,60.69
2023-04-22T19:19:20.043Z,62.42
2023-04-22T19:21:47.855Z,62.88
2023-04-22T19:24:16.093Z,63.69
2023-04-22T19:26:45.384Z,64.17
2023-04-22T19:29:15.971Z,65.37
2023-04-22T19:31:46.350Z,65.90
2023-04-22T19:34:14.399Z,65.47
2023-04-22T19:36:42.389Z,65.99
2023-04-22T19:39:09.976Z,65.74
2023-04-22T19:41:38.563Z,66.33
2023-04-22T19:44:06.244Z,66.52
2023-04-22T19:46:33.916Z,66.56
2023-04-22T19:49:03.477Z,65.77
2023-04-22T19:51:32.512Z,65.98
2023-04-22T19:54:00.305Z,64.65
2023-04-22T19:56:28.059Z,65.25
2023-04-22T19:58:56.462Z,64.38
2023-04-22T20:01:24.512Z,65.54
2023-04-22T20:03:52.870Z,64.45
2023-04-22T20:06:23.361Z,63.89
2023-04-22T20:08:54.132Z,65.78
2023-04-22T20:11:23.189Z,65.29
2023-04-22T20:13:51.479Z,65.68
2023-04-22T20:16:20.713Z,66.58
2023-04-22T20:18:48.656Z,67.14
2023-04-22T20:21:16.884Z,66.61
2023-04-22T20:23:46.897Z,66.76
2023-04-22T20:26:19.175Z,67.16
2023-04-22T20:28:48.679Z,67.56
2023-04-22T20:31:18.424Z,68.51
2023-04-22T20:33:47.134Z,68.23
2023-04-22T20:36:16.065Z,68.78
2023-04-22T20:38:48.590Z,68.27
2023-04-22T20:41:20.043Z,68.44
2023-04-22T20:43:48.024Z,67.80
2023-04-22T20:46:16.036Z,64.91
2023-04-22T20:48:44.019Z,63.98
2023-04-22T20:51:12.360Z,63.48
2023-04-22T20:53:40.993Z,63.07
2023-04-22T20:56:08.854Z,62.95
2023-04-22T20:58:37.953Z,62.89
2023-04-22T21:01:05.699Z,62.23
2023-04-22T21:03:34.824Z,62.21
2023-04-22T21:06:03.399Z,62.17
2023-04-22T21:08:34.900Z,62.14
2023-04-22T21:11:02.829Z,62.11
2023-04-22T21:13:31.069Z,62.37
2023-04-22T21:16:03.457Z,62.51
2023-04-22T21:18:33.939Z,62.34
2023-04-22T21:21:04.206Z,62.66
2023-04-22T21:23:32.791Z,63.47
2023-04-22T21:26:02.494Z,64.27
2023-04-22T21:28:30.827Z,63.78
2023-04-22T21:31:00.502Z,63.52
2023-04-22T21:33:28.411Z,63.55
2023-04-22T21:35:56.309Z,63.62
2023-04-22T21:38:24.147Z,63.82
2023-04-22T21:40:51.917Z,63.88
2023-04-22T21:43:19.686Z,63.84
2023-04-22T21:45:47.488Z,63.90
2023-04-22T21:48:16.433Z,64.72
2023-04-22T21:50:44.269Z,65.50
2023-04-22T21:53:12.087Z,66.74
2023-04-22T21:55:40.185Z,67.90
2023-04-22T21:58:07.822Z,69.00
2023-04-22T22:00:36.022Z,69.53
2023-04-22T22:03:03.706Z,70.21
2023-04-22T22:05:32.888Z,71.11
2023-04-22T22:08:00.610Z,71.38
2023-04-22T22:10:28.488Z,71.69
2023-04-22T22:12:56.241Z,71.88
2023-04-22T22:15:24.295Z,72.06
2023-04-22T22:17:52.034Z,69.56
2023-04-22T22:20:20.596Z,67.46
2023-04-22T22:22:49.766Z,66.76
2023-04-22T22:25:17.557Z,66.65
2023-04-22T22:27:47.190Z,68.64
2023-04-22T22:30:15.636Z,71.01
2023-04-22T22:32:43.529Z,71.79
2023-04-22T22:35:11.600Z,72.65
2023-04-22T22:37:39.240Z,73.09
2023-04-22T22:40:10.029Z,73.92
2023-04-22T22:42:37.749Z,74.56
2023-04-22T22:45:06.704Z,74.87
2023-04-22T22:47:34.472Z,75.50
2023-04-22T22:50:02.326Z,75.99
2023-04-22T22:52:30.571Z,76.27
2023-04-22T22:54:58.420Z,76.36
2023-04-22T22:57:27.449Z,75.71
2023-04-22T22:59:55.043Z,73.34
2023-04-22T23:02:22.908Z,71.85
2023-04-22T23:04:51.315Z,71.35
2023-04-22T23:07:19.017Z,70.86
2023-04-22T23:09:46.746Z,70.34
2023-04-22T23:12:14.327Z,70.02
2023-04-22T23:14:43.722Z,69.46
2023-04-22T23:17:11.460Z,69.24
2023-04-22T23:19:40.333Z,69.15
2023-04-22T23:22:08.255Z,69.14
2023-04-22T23:24:36.832Z,68.67
2023-04-22T23:27:05.419Z,68.58
2023-04-22T23:29:34.116Z,68.37
2023-04-22T23:32:05.351Z,67.90
2023-04-22T23:34:35.150Z,67.83
2023-04-22T23:37:05.373Z,67.99
2023-04-22T23:39:33.649Z,67.89
2023-04-22T23:42:01.538Z,67.85
2023-04-22T23:44:29.158Z,67.71
2023-04-22T23:46:57.133Z,67.78
2023-04-22T23:49:26.250Z,67.77
2023-04-22T23:51:54.377Z,67.88
2023-04-22T23:54:22.324Z,68.47
2023-04-22T23:56:50.807Z,68.78
2023-04-22T23:59:19.039Z,70.36
